createdAt,value
2023-05-04T00:04:50.113Z,99.99
2023-05-04T00:10:09.275Z,99.99
2023-05-04T00:15:28.104Z,99.99
2023-05-04T00:20:47.555Z,99.99
2023-05-04T00:26:06.784Z,99.99
2023-05-04T00:31:25.643Z,99.99
2023-05-04T00:36:44.969Z,99.99
2023-05-04T00:42:04.344Z,99.99
2023-05-04T00:47:23.724Z,99.99
2023-05-04T00:52:43.506Z,99.99
2023-05-04T00:58:02.861Z,99.99
2023-05-04T01:08:40.896Z,99.99
2023-05-04T01:14:00.184Z,99.99
2023-05-04T01:19:19.570Z,99.99
2023-05-04T01:24:39.126Z,99.99
2023-05-04T01:29:58.114Z,99.99
2023-05-04T01:35:17.361Z,99.99
2023-05-04T01:40:36.621Z,99.99
2023-05-04T01:45:55.531Z,99.99
2023-05-04T01:51:14.868Z,99.99
2023-05-04T01:56:34.032Z,99.99
2023-05-04T02:01:53.083Z,99.99
2023-05-04T02:07:12.499Z,99.99
2023-05-04T02:12:31.405Z,99.99
2023-05-04T02:17:50.637Z,99.99
2023-05-04T02:23:10.252Z,99.99
2023-05-04T02:28:29.645Z,99.99
2023-05-04T02:33:49.415Z,99.99
2023-05-04T02:39:08.662Z,99.99
2023-05-04T02:44:27.631Z,99.99
2023-05-04T02:49:46.421Z,99.99
2023-05-04T02:55:05.542Z,99.99
2023-05-04T03:00:24.401Z,99.99
2023-05-04T03:05:43.932Z,99.99
2023-05-04T03:11:03.452Z,99.99
2023-05-04T03:16:22.677Z,99.99
2023-05-04T03:21:41.611Z,99.99
2023-05-04T03:27:01.163Z,99.99
2023-05-04T03:32:20.174Z,99.99
2023-05-04T03:37:39.390Z,99.99
2023-05-04T03:42:58.532Z,99.99
2023-05-04T03:58:56.425Z,99.99
2023-05-04T04:04:15.895Z,99.99
2023-05-04T04:09:35.313Z,99.99
2023-05-04T04:14:54.238Z,99.99
2023-05-04T04:20:13.191Z,99.99
2023-05-04T04:25:33.132Z,99.99
2023-05-04T04:30:51.633Z,99.99
2023-05-04T04:41:30.352Z,99.99
2023-05-04T04:46:50.042Z,99.99
2023-05-04T04:52:09.761Z,99.99
2023-05-04T04:57:29.957Z,99.99
2023-05-04T05:02:47.492Z,99.99
2023-05-04T05:08:31.956Z,99.99
2023-05-04T05:13:51.310Z,99.99
2023-05-04T05:19:10.489Z,99.99
2023-05-04T05:24:29.414Z,99.99
2023-05-04T05:29:48.638Z,99.99
2023-05-04T05:35:08.220Z,99.99
2023-05-04T05:40:27.851Z,99.99
2023-05-04T05:45:47.544Z,99.99
2023-05-04T05:51:14.809Z,99.99
2023-05-04T05:56:26.306Z,99.99
2023-05-04T06:01:45.665Z,99.99
2023-05-04T06:07:05.323Z,99.99
2023-05-04T06:12:24.538Z,99.99
2023-05-04T06:17:44.009Z,99.99
2023-05-04T06:23:12.709Z,99.99
2023-05-04T06:28:22.753Z,99.99
2023-05-04T06:33:42.258Z,99.99
2023-05-04T06:39:01.421Z,99.99
2023-05-04T06:44:30.293Z,99.99
2023-05-04T06:49:39.317Z,99.99
2023-05-04T06:54:58.608Z,99.99
2023-05-04T07:00:17.793Z,99.99
2023-05-04T07:05:37.253Z,99.99
2023-05-04T07:10:56.305Z,99.99
2023-05-04T07:21:35.127Z,99.99
2023-05-04T07:26:54.610Z,99.99
2023-05-04T07:32:13.953Z,99.99
2023-05-04T07:37:33.166Z,99.99
2023-05-04T07:42:52.728Z,99.99
2023-05-04T07:48:12.555Z,99.99
2023-05-04T07:53:32.475Z,99.99
2023-05-04T07:58:51.411Z,99.99
2023-05-04T08:04:10.711Z,99.99
2023-05-04T08:09:30.154Z,99.99
2023-05-04T08:14:49.114Z,99.99
2023-05-04T08:20:08.782Z,99.99
2023-05-04T08:25:28.176Z,99.99
2023-05-04T08:30:46.974Z,99.99
2023-05-04T08:36:05.970Z,99.99
2023-05-04T08:41:25.260Z,99.99
2023-05-04T08:46:44.113Z,99.99
2023-05-04T08:52:03.291Z,99.99
2023-05-04T08:57:21.992Z,99.99
2023-05-04T09:02:41.307Z,99.24
2023-05-04T09:07:59.991Z,99.09
2023-05-04T09:13:18.791Z,99.19
2023-05-04T09:18:37.429Z,98.52
2023-05-04T09:23:56.896Z,98.25
2023-05-04T09:29:15.721Z,97.82
2023-05-04T09:34:35.173Z,97.65
2023-05-04T09:39:53.947Z,97.57
2023-05-04T09:45:13.076Z,97.39
2023-05-04T09:50:32.186Z,97.32
2023-05-04T09:55:50.886Z,97.32
2023-05-04T10:01:10.511Z,97.17
2023-05-04T10:06:29.733Z,97.23
2023-05-04T10:12:00.079Z,97.2
2023-05-04T10:17:08.237Z,97.16
2023-05-04T10:22:36.505Z,97.4
2023-05-04T10:27:46.711Z,97.59
2023-05-04T10:33:05.716Z,97.65
2023-05-04T10:38:24.690Z,97.79
2023-05-04T10:43:43.725Z,98.09
2023-05-04T10:54:22.718Z,98.03
2023-05-04T10:59:42.154Z,98.07
2023-05-04T11:05:01.500Z,97.74
2023-05-04T11:10:28.612Z,97.53
2023-05-04T11:15:39.940Z,97.59
2023-05-04T11:20:58.941Z,97.46
2023-05-04T11:26:17.653Z,97.59
2023-05-04T11:31:36.745Z,98.21
2023-05-04T11:36:56.234Z,98.51
2023-05-04T11:42:15.637Z,98.98
2023-05-04T11:47:43.645Z,99.4
2023-05-04T11:52:54.845Z,99.52
2023-05-04T11:58:13.734Z,99.61
2023-05-04T12:03:43.680Z,99.7
2023-05-04T12:08:52.241Z,99.92
2023-05-04T12:14:11.805Z,99.99
2023-05-04T12:19:30.607Z,99.99
2023-05-04T12:24:49.873Z,99.99
2023-05-04T12:30:09.158Z,99.87
2023-05-04T12:35:28.476Z,99.76
2023-05-04T12:40:48.073Z,99.99
2023-05-04T12:46:07.327Z,99.8
2023-05-04T12:51:26.761Z,99.78
2023-05-04T12:56:45.765Z,99.87
2023-05-04T13:02:04.638Z,99.99
2023-05-04T13:07:23.763Z,99.99
2023-05-04T13:12:44.173Z,99.99
2023-05-04T13:18:01.438Z,99.99
2023-05-04T13:23:20.923Z,99.99
2023-05-04T13:28:40.183Z,99.99
2023-05-04T13:33:58.478Z,99.99
2023-05-04T13:39:17.225Z,99.99
2023-05-04T13:44:36.527Z,99.99
2023-05-04T13:49:55.827Z,99.99
2023-05-04T13:55:24.226Z,99.99
2023-05-04T14:00:34.354Z,99.99
2023-05-04T14:06:01.971Z,99.99
2023-05-04T14:11:12.719Z,99.99
2023-05-04T14:16:32.034Z,99.99
2023-05-04T14:21:51.795Z,99.99
2023-05-04T14:27:11.115Z,99.99
2023-05-04T14:32:30.039Z,99.99
2023-05-04T14:37:49.375Z,99.99
2023-05-04T14:43:08.261Z,99.99
2023-05-04T14:48:27.575Z,99.99
2023-05-04T14:53:47.176Z,99.99
2023-05-04T14:59:06.535Z,99.99
2023-05-04T15:04:25.828Z,99.99
2023-05-04T15:09:45.224Z,99.99
2023-05-04T15:15:04.656Z,99.99
2023-05-04T15:20:24.035Z,99.99
2023-05-04T15:25:42.822Z,99.99
2023-05-04T15:31:01.840Z,99.99
2023-05-04T15:41:39.754Z,99.99
2023-05-04T15:46:59.386Z,99.99
2023-05-04T15:52:18.550Z,99.99
2023-05-04T15:57:37.824Z,99.99
2023-05-04T16:08:15.624Z,99.99
2023-05-04T16:13:34.837Z,99.99
2023-05-04T16:18:54.226Z,99.99
2023-05-04T16:24:13.000Z,99.99
2023-05-04T16:29:32.397Z,99.99
2023-05-04T16:34:51.664Z,99.99
2023-05-04T16:40:10.707Z,99.99
2023-05-04T16:45:29.733Z,99.99
2023-05-04T16:50:48.430Z,99.99
2023-05-04T16:56:07.136Z,99.99
2023-05-04T17:06:45.648Z,99.99
2023-05-04T17:12:05.631Z,99.99
2023-05-04T17:17:24.527Z,99.99
2023-05-04T17:22:43.872Z,99.99
2023-05-04T17:28:02.644Z,99.99
2023-05-04T17:33:21.801Z,99.99
2023-05-04T17:38:40.633Z,99.99
2023-05-04T17:43:59.660Z,99.99
2023-05-04T17:49:19.221Z,99.99
2023-05-04T17:54:38.600Z,99.99
2023-05-04T17:59:58.197Z,99.99
2023-05-04T18:05:17.616Z,99.99
2023-05-04T18:10:36.855Z,99.99
2023-05-04T18:15:55.695Z,99.99
2023-05-04T18:21:15.008Z,99.99
2023-05-04T18:26:34.027Z,99.99
2023-05-04T18:31:53.204Z,99.99
2023-05-04T18:37:12.369Z,99.99
2023-05-04T18:42:31.334Z,99.99
2023-05-04T18:47:51.033Z,99.99
2023-05-04T18:53:10.012Z,99.99
2023-05-04T18:58:29.346Z,99.99
2023-05-04T19:03:48.311Z,99.99
2023-05-04T19:09:07.834Z,99.99
2023-05-04T19:14:29.543Z,99.99
2023-05-04T19:19:46.362Z,99.99
2023-05-04T19:25:05.807Z,99.99
2023-05-04T19:30:25.001Z,99.99
2023-05-04T19:41:03.365Z,99.99
2023-05-04T19:46:22.308Z,99.99
2023-05-04T19:51:41.255Z,99.99
2023-05-04T19:57:00.938Z,99.99
2023-05-04T20:02:19.508Z,99.99
2023-05-04T20:07:38.784Z,99.99
2023-05-04T20:12:57.696Z,99.99
2023-05-04T20:18:16.574Z,99.99
2023-05-04T20:23:35.783Z,99.99
2023-05-04T20:34:14.867Z,99.99
2023-05-04T20:39:33.375Z,99.99
2023-05-04T20:44:52.687Z,99.99
2023-05-04T20:50:12.103Z,99.99
2023-05-04T20:55:31.444Z,99.99
2023-05-04T21:06:22.101Z,99.99
2023-05-04T21:11:29.439Z,99.99
2023-05-04T21:16:48.506Z,99.99
2023-05-04T21:22:08.043Z,99.99
2023-05-04T21:27:26.906Z,99.99
2023-05-04T21:32:46.213Z,99.99
2023-05-04T21:38:05.715Z,99.99
2023-05-04T21:43:25.383Z,99.99
2023-05-04T21:48:44.826Z,99.99
2023-05-04T21:54:04.108Z,99.99
2023-05-04T21:59:23.217Z,99.99
2023-05-04T22:04:42.167Z,99.99
2023-05-04T22:10:01.843Z,99.99
2023-05-04T22:15:20.627Z,99.99
2023-05-04T22:20:39.769Z,99.99
2023-05-04T22:25:58.995Z,99.99
2023-05-04T22:31:18.417Z,99.99
2023-05-04T22:41:56.796Z,99.99
2023-05-04T22:47:16.521Z,99.99
2023-05-04T22:52:35.933Z,99.99
2023-05-04T22:53:40.152Z,99.99
2023-05-04T22:58:28.831Z,99.99
2023-05-04T23:03:47.727Z,99.99
2023-05-04T23:09:06.571Z,99.99
2023-05-04T23:14:25.995Z,99.99
2023-05-04T23:19:44.878Z,99.99
2023-05-04T23:25:04.392Z,99.99
2023-05-04T23:30:23.219Z,99.99
2023-05-04T23:35:42.074Z,99.99
2023-05-04T23:41:01.044Z,99.99
2023-05-04T23:46:20.656Z,99.99
2023-05-04T23:51:39.844Z,99.99
2023-05-04T23:56:59.319Z,99.99
